sensor_id;sensor_type;location;lat;lon;timestamp;P1;durP1;ratioP1;P2;durP2;ratioP2
60312;SDS011;46158;52.850;6.970;2022-11-14T00:00:40;21.13;;;9.13;;
60312;SDS011;46158;52.850;6.970;2022-11-14T00:03:06;21.48;;;9.70;;
60312;SDS011;46158;52.850;6.970;2022-11-14T00:05:37;20.83;;;9.52;;
60312;SDS011;46158;52.850;6.970;2022-11-14T00:08:13;21.30;;;9.65;;
60312;SDS011;46158;52.850;6.970;2022-11-14T00:10:40;20.67;;;9.25;;
60312;SDS011;46158;52.850;6.970;2022-11-14T00:13:06;20.98;;;9.07;;
60312;SDS011;46158;52.850;6.970;2022-11-14T00:15:32;21.55;;;9.50;;
60312;SDS011;46158;52.850;6.970;2022-11-14T00:17:57;22.15;;;9.82;;
60312;SDS011;46158;52.850;6.970;2022-11-14T00:20:23;20.95;;;9.73;;
60312;SDS011;46158;52.850;6.970;2022-11-14T00:22:49;21.52;;;9.95;;
60312;SDS011;46158;52.850;6.970;2022-11-14T00:25:14;22.08;;;10.43;;
60312;SDS011;46158;52.850;6.970;2022-11-14T00:27:40;21.15;;;9.90;;
60312;SDS011;46158;52.850;6.970;2022-11-14T00:30:05;21.70;;;10.02;;
60312;SDS011;46158;52.850;6.970;2022-11-14T00:32:32;22.85;;;10.50;;
60312;SDS011;46158;52.850;6.970;2022-11-14T00:34:57;21.00;;;9.52;;
60312;SDS011;46158;52.850;6.970;2022-11-14T00:37:23;21.17;;;9.88;;
60312;SDS011;46158;52.850;6.970;2022-11-14T00:39:48;21.90;;;10.35;;
60312;SDS011;46158;52.850;6.970;2022-11-14T00:42:14;21.08;;;10.55;;
60312;SDS011;46158;52.850;6.970;2022-11-14T00:44:40;21.52;;;9.70;;
60312;SDS011;46158;52.850;6.970;2022-11-14T00:47:05;22.20;;;10.57;;
60312;SDS011;46158;52.850;6.970;2022-11-14T00:49:31;22.25;;;10.35;;
60312;SDS011;46158;52.850;6.970;2022-11-14T00:51:56;20.98;;;9.73;;
60312;SDS011;46158;52.850;6.970;2022-11-14T00:54:22;22.02;;;10.73;;
60312;SDS011;46158;52.850;6.970;2022-11-14T00:56:48;21.35;;;9.90;;
60312;SDS011;46158;52.850;6.970;2022-11-14T00:59:13;20.80;;;10.40;;
60312;SDS011;46158;52.850;6.970;2022-11-14T01:01:39;22.17;;;10.63;;
60312;SDS011;46158;52.850;6.970;2022-11-14T01:04:04;21.38;;;10.43;;
60312;SDS011;46158;52.850;6.970;2022-11-14T01:06:30;23.58;;;11.23;;
60312;SDS011;46158;52.850;6.970;2022-11-14T01:08:56;22.25;;;10.75;;
60312;SDS011;46158;52.850;6.970;2022-11-14T01:11:21;22.55;;;11.02;;
60312;SDS011;46158;52.850;6.970;2022-11-14T01:13:48;21.77;;;10.32;;
60312;SDS011;46158;52.850;6.970;2022-11-14T01:16:14;22.05;;;10.50;;
60312;SDS011;46158;52.850;6.970;2022-11-14T01:18:40;21.25;;;10.02;;
60312;SDS011;46158;52.850;6.970;2022-11-14T01:21:10;22.13;;;10.90;;
60312;SDS011;46158;52.850;6.970;2022-11-14T01:23:37;22.10;;;10.95;;
60312;SDS011;46158;52.850;6.970;2022-11-14T01:26:05;21.75;;;10.50;;
60312;SDS011;46158;52.850;6.970;2022-11-14T01:28:32;23.05;;;11.65;;
60312;SDS011;46158;52.850;6.970;2022-11-14T01:31:12;22.88;;;11.20;;
60312;SDS011;46158;52.850;6.970;2022-11-14T01:33:40;23.45;;;11.70;;
60312;SDS011;46158;52.850;6.970;2022-11-14T01:36:06;22.02;;;11.38;;
60312;SDS011;46158;52.850;6.970;2022-11-14T01:38:33;23.13;;;11.68;;
60312;SDS011;46158;52.850;6.970;2022-11-14T01:40:59;23.90;;;12.63;;
60312;SDS011;46158;52.850;6.970;2022-11-14T01:43:27;22.42;;;11.20;;
60312;SDS011;46158;52.850;6.970;2022-11-14T01:53:43;22.80;;;10.95;;
60312;SDS011;46158;52.850;6.970;2022-11-14T01:56:11;22.88;;;11.88;;
60312;SDS011;46158;52.850;6.970;2022-11-14T01:58:43;23.85;;;12.30;;
60312;SDS011;46158;52.850;6.970;2022-11-14T02:01:12;23.23;;;11.88;;
60312;SDS011;46158;52.850;6.970;2022-11-14T02:03:39;22.60;;;11.82;;
60312;SDS011;46158;52.850;6.970;2022-11-14T02:06:08;23.75;;;12.23;;
60312;SDS011;46158;52.850;6.970;2022-11-14T02:08:37;23.33;;;11.73;;
60312;SDS011;46158;52.850;6.970;2022-11-14T02:11:03;23.35;;;12.02;;
60312;SDS011;46158;52.850;6.970;2022-11-14T02:13:29;22.23;;;11.18;;
60312;SDS011;46158;52.850;6.970;2022-11-14T02:15:55;23.17;;;12.40;;
60312;SDS011;46158;52.850;6.970;2022-11-14T02:18:21;23.25;;;12.32;;
60312;SDS011;46158;52.850;6.970;2022-11-14T02:20:46;24.55;;;12.45;;
60312;SDS011;46158;52.850;6.970;2022-11-14T02:23:12;23.15;;;12.10;;
60312;SDS011;46158;52.850;6.970;2022-11-14T02:25:38;22.92;;;11.70;;
60312;SDS011;46158;52.850;6.970;2022-11-14T02:28:05;23.40;;;12.23;;
60312;SDS011;46158;52.850;6.970;2022-11-14T02:30:33;24.40;;;13.05;;
60312;SDS011;46158;52.850;6.970;2022-11-14T02:32:59;23.52;;;11.85;;
60312;SDS011;46158;52.850;6.970;2022-11-14T02:35:25;23.55;;;12.35;;
60312;SDS011;46158;52.850;6.970;2022-11-14T02:37:50;23.15;;;12.32;;
60312;SDS011;46158;52.850;6.970;2022-11-14T02:40:16;24.58;;;13.25;;
60312;SDS011;46158;52.850;6.970;2022-11-14T02:42:42;24.63;;;12.93;;
60312;SDS011;46158;52.850;6.970;2022-11-14T02:45:08;23.73;;;12.77;;
60312;SDS011;46158;52.850;6.970;2022-11-14T02:47:35;23.83;;;12.77;;
60312;SDS011;46158;52.850;6.970;2022-11-14T02:50:00;24.95;;;13.05;;
60312;SDS011;46158;52.850;6.970;2022-11-14T02:52:26;23.75;;;12.55;;
60312;SDS011;46158;52.850;6.970;2022-11-14T02:54:52;24.60;;;13.50;;
60312;SDS011;46158;52.850;6.970;2022-11-14T02:57:17;24.13;;;12.80;;
60312;SDS011;46158;52.850;6.970;2022-11-14T02:59:43;23.63;;;12.63;;
60312;SDS011;46158;52.850;6.970;2022-11-14T03:02:08;24.02;;;12.82;;
60312;SDS011;46158;52.850;6.970;2022-11-14T03:04:34;25.25;;;13.35;;
60312;SDS011;46158;52.850;6.970;2022-11-14T03:07:00;25.45;;;13.80;;
60312;SDS011;46158;52.850;6.970;2022-11-14T03:09:25;24.20;;;12.73;;
60312;SDS011;46158;52.850;6.970;2022-11-14T03:11:51;23.73;;;12.70;;
60312;SDS011;46158;52.850;6.970;2022-11-14T03:14:17;23.90;;;12.55;;
60312;SDS011;46158;52.850;6.970;2022-11-14T03:16:42;23.88;;;12.98;;
60312;SDS011;46158;52.850;6.970;2022-11-14T03:19:08;24.58;;;12.82;;
60312;SDS011;46158;52.850;6.970;2022-11-14T03:21:34;23.70;;;12.77;;
60312;SDS011;46158;52.850;6.970;2022-11-14T03:23:59;23.58;;;12.50;;
60312;SDS011;46158;52.850;6.970;2022-11-14T03:26:25;24.15;;;12.52;;
60312;SDS011;46158;52.850;6.970;2022-11-14T03:28:51;23.88;;;12.55;;
60312;SDS011;46158;52.850;6.970;2022-11-14T03:31:19;24.50;;;13.30;;
60312;SDS011;46158;52.850;6.970;2022-11-14T03:33:44;23.95;;;12.60;;
60312;SDS011;46158;52.850;6.970;2022-11-14T03:36:10;25.27;;;13.55;;
60312;SDS011;46158;52.850;6.970;2022-11-14T03:38:36;23.58;;;12.35;;
60312;SDS011;46158;52.850;6.970;2022-11-14T03:41:01;25.98;;;14.02;;
60312;SDS011;46158;52.850;6.970;2022-11-14T03:43:31;25.00;;;13.80;;
60312;SDS011;46158;52.850;6.970;2022-11-14T03:45:58;24.05;;;13.05;;
60312;SDS011;46158;52.850;6.970;2022-11-14T03:48:25;24.48;;;12.85;;
60312;SDS011;46158;52.850;6.970;2022-11-14T03:50:51;24.02;;;13.13;;
60312;SDS011;46158;52.850;6.970;2022-11-14T03:53:17;24.85;;;13.48;;
60312;SDS011;46158;52.850;6.970;2022-11-14T03:55:43;25.20;;;13.07;;
60312;SDS011;46158;52.850;6.970;2022-11-14T03:58:08;24.13;;;12.60;;
60312;SDS011;46158;52.850;6.970;2022-11-14T04:00:34;24.80;;;13.90;;
60312;SDS011;46158;52.850;6.970;2022-11-14T04:03:00;23.88;;;13.07;;
60312;SDS011;46158;52.850;6.970;2022-11-14T04:05:25;24.27;;;12.73;;
60312;SDS011;46158;52.850;6.970;2022-11-14T04:07:51;25.00;;;13.23;;
60312;SDS011;46158;52.850;6.970;2022-11-14T04:10:17;24.48;;;13.48;;
60312;SDS011;46158;52.850;6.970;2022-11-14T04:12:49;24.80;;;13.52;;
60312;SDS011;46158;52.850;6.970;2022-11-14T04:15:16;24.65;;;13.23;;
60312;SDS011;46158;52.850;6.970;2022-11-14T04:17:42;23.52;;;12.60;;
60312;SDS011;46158;52.850;6.970;2022-11-14T04:20:09;24.70;;;14.05;;
60312;SDS011;46158;52.850;6.970;2022-11-14T04:22:35;23.95;;;13.05;;
60312;SDS011;46158;52.850;6.970;2022-11-14T04:25:01;25.63;;;13.88;;
60312;SDS011;46158;52.850;6.970;2022-11-14T04:27:27;25.30;;;14.30;;
60312;SDS011;46158;52.850;6.970;2022-11-14T04:29:52;23.50;;;12.82;;
60312;SDS011;46158;52.850;6.970;2022-11-14T04:32:18;24.42;;;13.23;;
60312;SDS011;46158;52.850;6.970;2022-11-14T04:34:43;25.00;;;13.55;;
60312;SDS011;46158;52.850;6.970;2022-11-14T04:37:09;24.67;;;13.52;;
60312;SDS011;46158;52.850;6.970;2022-11-14T04:39:35;24.55;;;13.45;;
60312;SDS011;46158;52.850;6.970;2022-11-14T04:42:00;23.65;;;13.52;;
60312;SDS011;46158;52.850;6.970;2022-11-14T04:44:26;24.45;;;12.82;;
60312;SDS011;46158;52.850;6.970;2022-11-14T04:46:52;25.15;;;13.70;;
60312;SDS011;46158;52.850;6.970;2022-11-14T04:49:17;24.50;;;13.80;;
60312;SDS011;46158;52.850;6.970;2022-11-14T04:51:43;25.00;;;13.52;;
60312;SDS011;46158;52.850;6.970;2022-11-14T04:54:08;24.35;;;12.68;;
60312;SDS011;46158;52.850;6.970;2022-11-14T04:56:35;24.42;;;13.55;;
60312;SDS011;46158;52.850;6.970;2022-11-14T04:59:00;24.02;;;13.23;;
60312;SDS011;46158;52.850;6.970;2022-11-14T05:01:26;24.13;;;13.48;;
60312;SDS011;46158;52.850;6.970;2022-11-14T05:03:51;23.95;;;13.38;;
60312;SDS011;46158;52.850;6.970;2022-11-14T05:06:17;24.63;;;13.07;;
60312;SDS011;46158;52.850;6.970;2022-11-14T05:08:43;24.70;;;13.32;;
60312;SDS011;46158;52.850;6.970;2022-11-14T05:11:15;24.65;;;13.50;;
60312;SDS011;46158;52.850;6.970;2022-11-14T05:13:43;24.52;;;13.82;;
60312;SDS011;46158;52.850;6.970;2022-11-14T05:16:10;24.77;;;13.75;;
60312;SDS011;46158;52.850;6.970;2022-11-14T05:18:36;25.13;;;13.40;;
60312;SDS011;46158;52.850;6.970;2022-11-14T05:21:02;24.48;;;12.73;;
60312;SDS011;46158;52.850;6.970;2022-11-14T05:23:28;25.58;;;14.25;;
60312;SDS011;46158;52.850;6.970;2022-11-14T05:26:00;25.02;;;13.48;;
60312;SDS011;46158;52.850;6.970;2022-11-14T05:28:27;24.52;;;13.45;;
60312;SDS011;46158;52.850;6.970;2022-11-14T05:31:03;24.52;;;13.82;;
60312;SDS011;46158;52.850;6.970;2022-11-14T05:33:30;25.02;;;13.63;;
60312;SDS011;46158;52.850;6.970;2022-11-14T05:36:00;23.77;;;12.68;;
60312;SDS011;46158;52.850;6.970;2022-11-14T05:38:29;24.27;;;13.43;;
60312;SDS011;46158;52.850;6.970;2022-11-14T05:40:55;25.17;;;13.57;;
60312;SDS011;46158;52.850;6.970;2022-11-14T05:43:21;24.52;;;13.55;;
60312;SDS011;46158;52.850;6.970;2022-11-14T05:45:46;26.80;;;15.02;;
60312;SDS011;46158;52.850;6.970;2022-11-14T05:48:12;27.52;;;15.60;;
60312;SDS011;46158;52.850;6.970;2022-11-14T05:50:38;27.55;;;15.07;;
60312;SDS011;46158;52.850;6.970;2022-11-14T05:53:03;27.52;;;15.38;;
60312;SDS011;46158;52.850;6.970;2022-11-14T05:55:29;29.23;;;16.20;;
60312;SDS011;46158;52.850;6.970;2022-11-14T05:57:57;28.58;;;15.60;;
60312;SDS011;46158;52.850;6.970;2022-11-14T06:00:24;27.85;;;14.48;;
60312;SDS011;46158;52.850;6.970;2022-11-14T06:02:51;27.10;;;14.40;;
60312;SDS011;46158;52.850;6.970;2022-11-14T06:05:20;27.27;;;14.40;;
60312;SDS011;46158;52.850;6.970;2022-11-14T06:07:47;26.40;;;14.63;;
60312;SDS011;46158;52.850;6.970;2022-11-14T06:10:18;26.35;;;14.20;;
60312;SDS011;46158;52.850;6.970;2022-11-14T06:12:44;27.38;;;13.95;;
60312;SDS011;46158;52.850;6.970;2022-11-14T06:15:09;28.73;;;14.95;;
60312;SDS011;46158;52.850;6.970;2022-11-14T06:17:35;26.13;;;13.68;;
60312;SDS011;46158;52.850;6.970;2022-11-14T06:20:01;27.15;;;14.15;;
60312;SDS011;46158;52.850;6.970;2022-11-14T06:22:26;27.08;;;14.45;;
60312;SDS011;46158;52.850;6.970;2022-11-14T06:24:52;27.27;;;13.40;;
60312;SDS011;46158;52.850;6.970;2022-11-14T06:27:17;26.90;;;14.60;;
60312;SDS011;46158;52.850;6.970;2022-11-14T06:29:43;25.45;;;13.05;;
60312;SDS011;46158;52.850;6.970;2022-11-14T06:32:09;26.40;;;14.63;;
60312;SDS011;46158;52.850;6.970;2022-11-14T06:34:34;26.20;;;14.18;;
60312;SDS011;46158;52.850;6.970;2022-11-14T06:37:00;26.02;;;14.55;;
60312;SDS011;46158;52.850;6.970;2022-11-14T06:39:26;26.13;;;13.98;;
60312;SDS011;46158;52.850;6.970;2022-11-14T06:41:52;27.63;;;15.13;;
60312;SDS011;46158;52.850;6.970;2022-11-14T06:44:18;27.52;;;14.85;;
60312;SDS011;46158;52.850;6.970;2022-11-14T06:46:43;27.15;;;14.98;;
60312;SDS011;46158;52.850;6.970;2022-11-14T06:49:09;26.23;;;14.55;;
60312;SDS011;46158;52.850;6.970;2022-11-14T06:51:35;27.52;;;14.50;;
60312;SDS011;46158;52.850;6.970;2022-11-14T06:54:00;24.17;;;12.25;;
60312;SDS011;46158;52.850;6.970;2022-11-14T06:56:26;24.92;;;12.38;;
60312;SDS011;46158;52.850;6.970;2022-11-14T06:58:52;23.60;;;11.30;;
60312;SDS011;46158;52.850;6.970;2022-11-14T07:01:18;24.52;;;11.27;;
60312;SDS011;46158;52.850;6.970;2022-11-14T07:03:46;23.38;;;11.35;;
60312;SDS011;46158;52.850;6.970;2022-11-14T07:06:13;23.92;;;11.75;;
60312;SDS011;46158;52.850;6.970;2022-11-14T07:08:41;23.20;;;10.98;;
60312;SDS011;46158;52.850;6.970;2022-11-14T07:11:07;23.95;;;10.90;;
60312;SDS011;46158;52.850;6.970;2022-11-14T07:13:46;23.58;;;11.40;;
60312;SDS011;46158;52.850;6.970;2022-11-14T07:16:24;23.20;;;11.18;;
60312;SDS011;46158;52.850;6.970;2022-11-14T07:18:53;22.92;;;11.25;;
60312;SDS011;46158;52.850;6.970;2022-11-14T07:21:19;22.92;;;10.75;;
60312;SDS011;46158;52.850;6.970;2022-11-14T07:23:45;23.60;;;10.73;;
60312;SDS011;46158;52.850;6.970;2022-11-14T07:26:11;22.70;;;10.98;;
60312;SDS011;46158;52.850;6.970;2022-11-14T07:28:37;22.85;;;10.57;;
60312;SDS011;46158;52.850;6.970;2022-11-14T07:31:08;21.95;;;10.00;;
60312;SDS011;46158;52.850;6.970;2022-11-14T07:33:39;21.58;;;10.13;;
60312;SDS011;46158;52.850;6.970;2022-11-14T07:36:05;22.15;;;9.80;;
60312;SDS011;46158;52.850;6.970;2022-11-14T07:38:33;25.67;;;12.80;;
60312;SDS011;46158;52.850;6.970;2022-11-14T07:41:00;27.17;;;13.90;;
60312;SDS011;46158;52.850;6.970;2022-11-14T07:43:27;29.23;;;14.82;;
60312;SDS011;46158;52.850;6.970;2022-11-14T07:45:57;25.50;;;12.85;;
60312;SDS011;46158;52.850;6.970;2022-11-14T07:48:28;28.75;;;14.60;;
60312;SDS011;46158;52.850;6.970;2022-11-14T07:51:00;25.05;;;12.85;;
60312;SDS011;46158;52.850;6.970;2022-11-14T07:53:27;28.20;;;14.60;;
60312;SDS011;46158;52.850;6.970;2022-11-14T07:55:53;27.70;;;13.68;;
60312;SDS011;46158;52.850;6.970;2022-11-14T07:58:19;25.88;;;13.13;;
60312;SDS011;46158;52.850;6.970;2022-11-14T08:00:45;27.52;;;14.00;;
60312;SDS011;46158;52.850;6.970;2022-11-14T08:03:10;26.27;;;12.80;;
60312;SDS011;46158;52.850;6.970;2022-11-14T08:05:36;28.20;;;14.30;;
60312;SDS011;46158;52.850;6.970;2022-11-14T08:08:02;27.02;;;12.88;;
60312;SDS011;46158;52.850;6.970;2022-11-14T08:10:28;26.48;;;13.23;;
60312;SDS011;46158;52.850;6.970;2022-11-14T08:13:01;27.02;;;13.57;;
60312;SDS011;46158;52.850;6.970;2022-11-14T08:15:29;27.27;;;13.63;;
60312;SDS011;46158;52.850;6.970;2022-11-14T08:17:58;26.83;;;14.10;;
60312;SDS011;46158;52.850;6.970;2022-11-14T08:20:25;26.02;;;12.75;;
60312;SDS011;46158;52.850;6.970;2022-11-14T08:22:52;25.65;;;13.27;;
60312;SDS011;46158;52.850;6.970;2022-11-14T08:25:18;26.23;;;13.07;;
60312;SDS011;46158;52.850;6.970;2022-11-14T08:27:43;26.52;;;13.43;;
60312;SDS011;46158;52.850;6.970;2022-11-14T08:30:09;24.73;;;12.52;;
60312;SDS011;46158;52.850;6.970;2022-11-14T08:32:35;25.40;;;13.07;;
60312;SDS011;46158;52.850;6.970;2022-11-14T08:35:01;27.67;;;13.00;;
60312;SDS011;46158;52.850;6.970;2022-11-14T08:37:27;26.17;;;12.80;;
60312;SDS011;46158;52.850;6.970;2022-11-14T08:39:52;25.75;;;13.10;;
60312;SDS011;46158;52.850;6.970;2022-11-14T08:42:18;26.63;;;12.88;;
60312;SDS011;46158;52.850;6.970;2022-11-14T08:44:44;25.65;;;12.45;;
60312;SDS011;46158;52.850;6.970;2022-11-14T08:47:09;25.20;;;12.50;;
60312;SDS011;46158;52.850;6.970;2022-11-14T08:49:35;26.35;;;12.85;;
60312;SDS011;46158;52.850;6.970;2022-11-14T08:52:00;26.17;;;12.65;;
60312;SDS011;46158;52.850;6.970;2022-11-14T08:54:26;26.30;;;12.65;;
60312;SDS011;46158;52.850;6.970;2022-11-14T08:56:52;24.20;;;12.52;;
60312;SDS011;46158;52.850;6.970;2022-11-14T08:59:18;25.17;;;12.55;;
60312;SDS011;46158;52.850;6.970;2022-11-14T09:01:44;24.25;;;12.05;;
60312;SDS011;46158;52.850;6.970;2022-11-14T09:04:09;25.80;;;12.27;;
60312;SDS011;46158;52.850;6.970;2022-11-14T09:06:35;25.02;;;12.35;;
60312;SDS011;46158;52.850;6.970;2022-11-14T09:09:01;24.17;;;12.02;;
60312;SDS011;46158;52.850;6.970;2022-11-14T09:11:27;24.45;;;12.27;;
60312;SDS011;46158;52.850;6.970;2022-11-14T09:13:52;23.85;;;11.82;;
60312;SDS011;46158;52.850;6.970;2022-11-14T09:16:18;25.63;;;12.95;;
60312;SDS011;46158;52.850;6.970;2022-11-14T09:18:44;23.83;;;11.75;;
60312;SDS011;46158;52.850;6.970;2022-11-14T09:21:10;25.80;;;12.90;;
60312;SDS011;46158;52.850;6.970;2022-11-14T09:23:36;25.38;;;12.30;;
60312;SDS011;46158;52.850;6.970;2022-11-14T09:26:05;24.77;;;12.38;;
60312;SDS011;46158;52.850;6.970;2022-11-14T09:31:08;24.60;;;12.70;;
60312;SDS011;46158;52.850;6.970;2022-11-14T09:33:36;24.33;;;11.82;;
60312;SDS011;46158;52.850;6.970;2022-11-14T09:36:03;25.88;;;12.95;;
60312;SDS011;46158;52.850;6.970;2022-11-14T09:38:31;24.13;;;12.30;;
60312;SDS011;46158;52.850;6.970;2022-11-14T09:44:10;24.90;;;12.18;;
60312;SDS011;46158;52.850;6.970;2022-11-14T09:46:45;25.80;;;12.85;;
60312;SDS011;46158;52.850;6.970;2022-11-14T09:49:23;25.33;;;12.57;;
60312;SDS011;46158;52.850;6.970;2022-11-14T09:54:54;28.05;;;14.45;;
60312;SDS011;46158;52.850;6.970;2022-11-14T09:57:22;28.08;;;14.60;;
60312;SDS011;46158;52.850;6.970;2022-11-14T09:59:48;32.40;;;17.90;;
60312;SDS011;46158;52.850;6.970;2022-11-14T10:04:54;28.17;;;13.60;;
60312;SDS011;46158;52.850;6.970;2022-11-14T10:10:31;25.65;;;12.32;;
60312;SDS011;46158;52.850;6.970;2022-11-14T10:27:05;24.23;;;12.32;;
60312;SDS011;46158;52.850;6.970;2022-11-14T10:37:56;26.95;;;13.13;;
60312;SDS011;46158;52.850;6.970;2022-11-14T10:43:15;24.92;;;12.68;;
60312;SDS011;46158;52.850;6.970;2022-11-14T10:48:44;25.70;;;12.82;;
60312;SDS011;46158;52.850;6.970;2022-11-14T10:56:44;25.45;;;13.27;;
60312;SDS011;46158;52.850;6.970;2022-11-14T10:59:14;24.58;;;11.85;;
60312;SDS011;46158;52.850;6.970;2022-11-14T11:01:41;25.90;;;13.70;;
60312;SDS011;46158;52.850;6.970;2022-11-14T11:04:30;27.17;;;12.27;;
60312;SDS011;46158;52.850;6.970;2022-11-14T11:06:56;23.65;;;11.52;;
60312;SDS011;46158;52.850;6.970;2022-11-14T11:10:00;23.90;;;11.57;;
60312;SDS011;46158;52.850;6.970;2022-11-14T11:12:45;23.50;;;11.15;;
60312;SDS011;46158;52.850;6.970;2022-11-14T11:15:17;28.27;;;11.98;;
60312;SDS011;46158;52.850;6.970;2022-11-14T11:18:03;22.90;;;10.67;;
60312;SDS011;46158;52.850;6.970;2022-11-14T11:20:46;23.77;;;10.93;;
60312;SDS011;46158;52.850;6.970;2022-11-14T11:23:25;22.55;;;10.73;;
60312;SDS011;46158;52.850;6.970;2022-11-14T11:26:01;23.75;;;11.32;;
60312;SDS011;46158;52.850;6.970;2022-11-14T11:28:34;22.55;;;11.23;;
60312;SDS011;46158;52.850;6.970;2022-11-14T11:31:02;22.85;;;11.20;;
60312;SDS011;46158;52.850;6.970;2022-11-14T11:35:59;23.88;;;11.20;;
60312;SDS011;46158;52.850;6.970;2022-11-14T11:38:30;22.38;;;11.10;;
60312;SDS011;46158;52.850;6.970;2022-11-14T11:41:13;24.38;;;11.85;;
60312;SDS011;46158;52.850;6.970;2022-11-14T11:43:55;22.52;;;10.52;;
60312;SDS011;46158;52.850;6.970;2022-11-14T11:46:43;22.70;;;11.18;;
60312;SDS011;46158;52.850;6.970;2022-11-14T11:52:04;22.83;;;11.48;;
60312;SDS011;46158;52.850;6.970;2022-11-14T11:57:15;24.15;;;11.63;;
60312;SDS011;46158;52.850;6.970;2022-11-14T11:59:44;23.58;;;12.32;;
60312;SDS011;46158;52.850;6.970;2022-11-14T12:02:21;25.30;;;13.95;;
60312;SDS011;46158;52.850;6.970;2022-11-14T12:04:51;25.65;;;15.15;;
60312;SDS011;46158;52.850;6.970;2022-11-14T12:07:24;27.50;;;15.85;;
60312;SDS011;46158;52.850;6.970;2022-11-14T12:10:17;25.80;;;14.93;;
60312;SDS011;46158;52.850;6.970;2022-11-14T12:12:53;26.95;;;15.68;;
60312;SDS011;46158;52.850;6.970;2022-11-14T12:15:30;27.13;;;15.93;;
60312;SDS011;46158;52.850;6.970;2022-11-14T12:18:21;26.98;;;16.35;;
60312;SDS011;46158;52.850;6.970;2022-11-14T12:21:17;26.55;;;16.20;;
60312;SDS011;46158;52.850;6.970;2022-11-14T12:27:12;26.23;;;15.75;;
60312;SDS011;46158;52.850;6.970;2022-11-14T12:30:03;26.40;;;15.18;;
60312;SDS011;46158;52.850;6.970;2022-11-14T12:32:37;25.83;;;15.55;;
60312;SDS011;46158;52.850;6.970;2022-11-14T12:35:15;25.27;;;14.95;;
60312;SDS011;46158;52.850;6.970;2022-11-14T12:37:51;26.58;;;14.98;;
60312;SDS011;46158;52.850;6.970;2022-11-14T12:42:53;25.05;;;14.60;;
60312;SDS011;46158;52.850;6.970;2022-11-14T12:48:14;24.73;;;13.90;;
60312;SDS011;46158;52.850;6.970;2022-11-14T12:50:51;24.17;;;13.43;;
60312;SDS011;46158;52.850;6.970;2022-11-14T12:56:24;25.88;;;13.32;;
60312;SDS011;46158;52.850;6.970;2022-11-14T13:07:47;25.17;;;14.05;;
60312;SDS011;46158;52.850;6.970;2022-11-14T13:10:42;25.50;;;14.38;;
60312;SDS011;46158;52.850;6.970;2022-11-14T13:13:09;24.17;;;13.30;;
60312;SDS011;46158;52.850;6.970;2022-11-14T13:15:55;23.98;;;13.23;;
60312;SDS011;46158;52.850;6.970;2022-11-14T13:27:42;23.23;;;12.25;;
60312;SDS011;46158;52.850;6.970;2022-11-14T13:30:07;23.20;;;11.80;;
60312;SDS011;46158;52.850;6.970;2022-11-14T13:35:04;22.55;;;11.20;;
60312;SDS011;46158;52.850;6.970;2022-11-14T13:37:57;22.42;;;10.90;;
60312;SDS011;46158;52.850;6.970;2022-11-14T13:40:32;22.08;;;9.98;;
60312;SDS011;46158;52.850;6.970;2022-11-14T13:51:20;20.40;;;9.82;;
60312;SDS011;46158;52.850;6.970;2022-11-14T13:53:49;20.67;;;9.27;;
60312;SDS011;46158;52.850;6.970;2022-11-14T14:01:51;20.23;;;9.63;;
60312;SDS011;46158;52.850;6.970;2022-11-14T14:07:22;20.67;;;9.10;;
60312;SDS011;46158;52.850;6.970;2022-11-14T14:15:20;21.10;;;9.18;;
60312;SDS011;46158;52.850;6.970;2022-11-14T14:18:00;20.48;;;8.50;;
60312;SDS011;46158;52.850;6.970;2022-11-14T14:23:32;19.17;;;8.45;;
60312;SDS011;46158;52.850;6.970;2022-11-14T14:29:00;20.67;;;9.25;;
60312;SDS011;46158;52.850;6.970;2022-11-14T14:31:43;19.55;;;8.45;;
60312;SDS011;46158;52.850;6.970;2022-11-14T14:34:28;19.02;;;8.07;;
60312;SDS011;46158;52.850;6.970;2022-11-14T14:36:55;20.40;;;8.40;;
60312;SDS011;46158;52.850;6.970;2022-11-14T14:39:25;19.60;;;8.15;;
60312;SDS011;46158;52.850;6.970;2022-11-14T14:41:53;20.15;;;8.43;;
60312;SDS011;46158;52.850;6.970;2022-11-14T14:46:52;19.38;;;8.15;;
60312;SDS011;46158;52.850;6.970;2022-11-14T14:49:22;20.08;;;8.68;;
60312;SDS011;46158;52.850;6.970;2022-11-14T14:51:51;18.90;;;7.75;;
60312;SDS011;46158;52.850;6.970;2022-11-14T14:54:21;20.40;;;8.40;;
60312;SDS011;46158;52.850;6.970;2022-11-14T14:56:55;20.20;;;8.45;;
60312;SDS011;46158;52.850;6.970;2022-11-14T14:59:27;19.20;;;8.00;;
60312;SDS011;46158;52.850;6.970;2022-11-14T15:01:55;19.65;;;8.00;;
60312;SDS011;46158;52.850;6.970;2022-11-14T15:04:25;19.58;;;7.63;;
60312;SDS011;46158;52.850;6.970;2022-11-14T15:06:53;19.63;;;8.52;;
60312;SDS011;46158;52.850;6.970;2022-11-14T15:09:24;18.95;;;8.07;;
60312;SDS011;46158;52.850;6.970;2022-11-14T15:11:52;18.65;;;7.20;;
60312;SDS011;46158;52.850;6.970;2022-11-14T15:14:24;19.13;;;7.72;;
60312;SDS011;46158;52.850;6.970;2022-11-14T15:16:55;19.27;;;7.35;;
60312;SDS011;46158;52.850;6.970;2022-11-14T15:19:22;18.42;;;7.15;;
60312;SDS011;46158;52.850;6.970;2022-11-14T15:22:17;17.88;;;7.20;;
60312;SDS011;46158;52.850;6.970;2022-11-14T15:25:03;19.02;;;7.43;;
60312;SDS011;46158;52.850;6.970;2022-11-14T15:27:46;19.45;;;7.20;;
60312;SDS011;46158;52.850;6.970;2022-11-14T15:30:27;19.38;;;7.55;;
60312;SDS011;46158;52.850;6.970;2022-11-14T15:32:57;18.92;;;7.20;;
60312;SDS011;46158;52.850;6.970;2022-11-14T15:40:38;18.10;;;7.10;;
60312;SDS011;46158;52.850;6.970;2022-11-14T15:48:50;18.00;;;7.15;;
60312;SDS011;46158;52.850;6.970;2022-11-14T15:51:15;17.48;;;6.78;;
60312;SDS011;46158;52.850;6.970;2022-11-14T15:53:44;18.92;;;7.20;;
60312;SDS011;46158;52.850;6.970;2022-11-14T15:56:12;19.50;;;7.60;;
60312;SDS011;46158;52.850;6.970;2022-11-14T15:58:38;16.75;;;6.90;;
60312;SDS011;46158;52.850;6.970;2022-11-14T16:01:04;18.88;;;7.10;;
60312;SDS011;46158;52.850;6.970;2022-11-14T16:03:37;17.50;;;7.07;;
60312;SDS011;46158;52.850;6.970;2022-11-14T16:06:03;20.20;;;7.13;;
60312;SDS011;46158;52.850;6.970;2022-11-14T16:08:28;17.60;;;6.85;;
60312;SDS011;46158;52.850;6.970;2022-11-14T16:10:54;17.48;;;6.65;;
60312;SDS011;46158;52.850;6.970;2022-11-14T16:13:20;19.15;;;7.03;;
60312;SDS011;46158;52.850;6.970;2022-11-14T16:15:45;16.77;;;6.75;;
60312;SDS011;46158;52.850;6.970;2022-11-14T16:18:11;16.60;;;6.40;;
60312;SDS011;46158;52.850;6.970;2022-11-14T16:20:39;17.95;;;6.97;;
60312;SDS011;46158;52.850;6.970;2022-11-14T16:23:05;17.52;;;6.75;;
60312;SDS011;46158;52.850;6.970;2022-11-14T16:25:31;17.83;;;6.68;;
60312;SDS011;46158;52.850;6.970;2022-11-14T16:27:57;17.77;;;6.75;;
60312;SDS011;46158;52.850;6.970;2022-11-14T16:30:23;17.67;;;6.68;;
60312;SDS011;46158;52.850;6.970;2022-11-14T16:32:49;16.95;;;6.18;;
60312;SDS011;46158;52.850;6.970;2022-11-14T16:35:17;18.00;;;6.63;;
60312;SDS011;46158;52.850;6.970;2022-11-14T16:37:44;17.05;;;6.97;;
60312;SDS011;46158;52.850;6.970;2022-11-14T16:40:14;17.38;;;6.43;;
60312;SDS011;46158;52.850;6.970;2022-11-14T16:42:43;17.00;;;6.70;;
60312;SDS011;46158;52.850;6.970;2022-11-14T16:45:09;17.52;;;6.55;;
60312;SDS011;46158;52.850;6.970;2022-11-14T16:47:35;17.02;;;6.50;;
60312;SDS011;46158;52.850;6.970;2022-11-14T16:50:02;17.30;;;6.55;;